Time;durP1;ratioP1;P1;durP2;ratioP2;P2;SDS_P1;SDS_P2;PMS_P1;PMS_P2;Temp;Humidity;BMP_temperature;BMP_pressure;BME280_temperature;BME280_humidity;BME280_pressure;Samples;Min_cycle;Max_cycle;Signal;HPM_P1;HPM_P2
2023/01/11 00:00:37;;;;;;;4.43;2.13;;;6.60;69.90;6.50;96716.00;;;;5025605;28;20218;-82
2023/01/11 00:03:06;;;;;;;18.90;2.77;;;6.60;70.00;6.50;96717.00;;;;5020891;28;20220;-82
2023/01/11 00:05:38;;;;;;;2.53;1.23;;;6.70;70.00;6.50;96709.00;;;;5030831;28;20206;-82
2023/01/11 00:08:06;;;;;;;2.60;1.50;;;6.70;69.90;6.50;96701.00;;;;5022635;28;20673;-81
2023/01/11 00:10:35;;;;;;;3.83;1.57;;;6.70;69.60;6.50;96698.00;;;;5025815;28;20783;-81
2023/01/11 00:13:03;;;;;;;1.57;1.37;;;6.70;69.40;6.60;96698.00;;;;5030483;28;20268;-81
2023/01/11 00:15:31;;;;;;;2.40;1.40;;;6.70;69.40;6.60;96702.00;;;;5024484;28;20288;-81
2023/01/11 00:17:58;;;;;;;7.17;1.80;;;6.80;69.40;6.60;96706.00;;;;5027822;28;20289;-81
2023/01/11 00:20:26;;;;;;;9.77;2.00;;;6.70;69.30;6.60;96704.00;;;;5025263;28;20218;-81
2023/01/11 00:22:53;;;;;;;14.27;2.50;;;6.70;69.30;6.60;96700.00;;;;5030262;28;20205;-80
2023/01/11 00:25:21;;;;;;;4.03;1.53;;;6.80;69.50;6.70;96702.00;;;;5032084;28;20213;-81
2023/01/11 00:27:49;;;;;;;9.87;1.57;;;6.80;69.50;6.70;96702.00;;;;5044300;28;20228;-81
2023/01/11 00:30:17;;;;;;;1.27;1.13;;;6.80;69.60;6.70;96691.00;;;;5035590;28;20268;-81
2023/01/11 00:32:45;;;;;;;18.73;2.47;;;6.90;69.50;6.70;96682.00;;;;5028528;28;20205;-81
2023/01/11 00:35:13;;;;;;;3.77;1.07;;;6.90;69.40;6.70;96680.00;;;;5024614;28;20198;-81
2023/01/11 00:37:40;;;;;;;2.40;1.10;;;6.90;69.40;6.80;96674.00;;;;5030705;28;20259;-81
2023/01/11 00:40:10;;;;;;;5.30;1.30;;;6.90;69.30;6.80;96680.00;;;;5026769;28;20221;-81
2023/01/11 00:48:10;;;;;;;2.37;1.80;;;7.00;69.00;6.90;96658.00;;;;5030272;28;20296;-81
2023/01/11 00:50:40;;;;;;;21.17;2.60;;;7.00;69.20;6.90;96660.00;;;;5030073;28;20251;-81
2023/01/11 00:53:11;;;;;;;10.57;2.07;;;7.00;69.20;6.90;96667.00;;;;5028819;28;20229;-81
2023/01/11 00:55:38;;;;;;;6.60;1.60;;;7.10;69.50;6.90;96660.00;;;;5029400;28;20192;-81
2023/01/11 00:58:05;;;;;;;5.83;1.80;;;7.10;69.50;7.00;96654.00;;;;5025314;28;20264;-81
2023/01/11 01:00:37;;;;;;;7.93;2.27;;;7.10;70.20;7.00;96656.00;;;;5025358;28;21155;-81
2023/01/11 01:03:04;;;;;;;22.40;2.57;;;7.10;69.40;7.00;96652.00;;;;5028864;28;20208;-81
2023/01/11 01:05:32;;;;;;;19.00;2.70;;;7.10;69.50;7.00;96655.00;;;;5026509;28;20243;-82
2023/01/11 01:07:59;;;;;;;7.10;2.00;;;7.20;69.60;7.10;96655.00;;;;5024794;28;20563;-81
2023/01/11 01:16:08;;;;;;;6.07;1.80;;;7.20;69.60;7.10;96663.00;;;;5025972;28;21540;-81
2023/01/11 01:18:36;;;;;;;7.73;1.80;;;7.30;69.70;7.20;96658.00;;;;5026152;28;20222;-81
2023/01/11 01:21:04;;;;;;;14.90;1.90;;;7.30;69.70;7.20;96655.00;;;;5025904;28;20226;-81
2023/01/11 01:23:32;;;;;;;5.33;1.87;;;7.30;69.80;7.20;96660.00;;;;5025044;28;20197;-81
2023/01/11 01:26:09;;;;;;;7.20;1.43;;;7.30;69.90;7.30;96656.00;;;;5025719;28;20251;-81
2023/01/11 01:28:38;;;;;;;5.17;1.30;;;7.30;69.80;7.30;96657.00;;;;5025664;28;20197;-81
2023/01/11 01:31:18;;;;;;;8.07;1.43;;;7.40;69.80;7.30;96651.00;;;;5028481;28;20295;-81
2023/01/11 01:33:45;;;;;;;7.77;1.70;;;7.40;69.80;7.30;96658.00;;;;5029111;28;20193;-81
2023/01/11 01:36:14;;;;;;;7.87;1.60;;;7.40;69.80;7.40;96655.00;;;;5027387;28;20232;-81
2023/01/11 01:38:47;;;;;;;5.40;1.30;;;7.40;69.80;7.40;96665.00;;;;5029000;28;20761;-81
2023/01/11 01:41:14;;;;;;;10.73;1.90;;;7.50;69.80;7.40;96666.00;;;;5033828;28;20556;-81
2023/01/11 01:43:50;;;;;;;15.07;1.90;;;7.50;69.80;7.40;96664.00;;;;5034113;28;20561;-81
2023/01/11 01:46:22;;;;;;;11.60;2.00;;;7.50;69.80;7.50;96666.00;;;;5033496;28;20189;-81
2023/01/11 01:48:55;;;;;;;5.87;1.73;;;7.50;69.80;7.50;96656.00;;;;5033170;28;20233;-81
2023/01/11 01:51:28;;;;;;;8.50;1.83;;;7.60;69.80;7.50;96655.00;;;;5035429;28;20311;-80
2023/01/11 01:54:01;;;;;;;8.07;1.60;;;7.60;69.70;7.60;96655.00;;;;5029368;28;20209;-81
2023/01/11 01:56:36;;;;;;;16.60;1.90;;;7.60;69.70;7.60;96657.00;;;;5031454;28;20202;-80
2023/01/11 01:59:12;;;;;;;2.67;1.00;;;7.60;69.60;7.60;96661.00;;;;5032341;28;20217;-80
2023/01/11 02:01:56;;;;;;;33.70;2.67;;;7.60;69.70;7.60;96652.00;;;;5091744;22;20245;-80
2023/01/11 02:04:30;;;;;;;11.77;1.37;;;7.70;69.70;7.60;96657.00;;;;5110972;27;20186;-80
2023/01/11 02:07:01;;;;;;;0.73;0.63;;;7.70;69.50;7.70;96657.00;;;;5112844;27;20247;-81
2023/01/11 02:09:42;;;;;;;5.33;1.00;;;7.70;69.40;7.70;96647.00;;;;5118198;27;20243;-81
2023/01/11 02:12:13;;;;;;;3.80;0.63;;;7.80;69.30;7.70;96649.00;;;;5106774;27;20244;-81
2023/01/11 02:14:43;;;;;;;2.17;0.70;;;7.80;69.30;7.70;96635.00;;;;5101310;28;20279;-81
2023/01/11 02:17:20;;;;;;;0.50;0.50;;;7.80;69.30;7.70;96631.00;;;;5103781;27;20187;-79
2023/01/11 02:20:24;;;;;;;2.33;0.53;;;7.80;69.10;7.70;96629.00;;;;5105277;27;20233;-80
2023/01/11 02:23:52;;;;;;;1.00;0.50;;;7.80;69.10;7.70;96634.00;;;;5101877;27;20202;-81
2023/01/11 02:27:16;;;;;;;0.87;0.37;;;7.90;69.20;7.70;96640.00;;;;5108279;27;20204;-83
2023/01/11 02:30:01;;;;;;;0.87;0.43;;;7.90;69.20;7.70;96638.00;;;;5088494;28;20223;-82
2023/01/11 02:32:51;;;;;;;14.07;1.00;;;7.80;69.20;7.70;96631.00;;;;5101487;28;20210;-83
2023/01/11 02:35:59;;;;;;;10.40;1.07;;;7.90;69.40;7.70;96629.00;;;;5099582;27;20221;-83
2023/01/11 02:38:42;;;;;;;4.13;0.73;;;7.90;69.70;7.70;96618.00;;;;5099958;27;20194;-81
2023/01/11 02:47:28;;;;;;;0.70;0.40;;;7.90;69.90;7.70;96605.00;;;;5089918;27;20211;-80
2023/01/11 02:50:05;;;;;;;10.90;1.13;;;7.90;70.00;7.60;96604.00;;;;5101272;27;20214;-81
2023/01/11 02:52:44;;;;;;;0.37;0.37;;;7.90;70.20;7.60;96593.00;;;;5105131;27;20855;-80
2023/01/11 02:55:23;;;;;;;12.77;1.07;;;7.80;70.30;7.60;96595.00;;;;5103327;28;20210;-81
2023/01/11 02:58:04;;;;;;;1.10;0.60;;;7.90;70.50;7.60;96580.00;;;;5117432;27;20199;-81
2023/01/11 03:00:34;;;;;;;5.33;0.93;;;7.90;70.70;7.60;96578.00;;;;5112477;27;20215;-80
2023/01/11 03:03:20;;;;;;;9.53;1.30;;;7.80;70.70;7.60;96585.00;;;;5099601;28;20575;-81
2023/01/11 03:06:06;;;;;;;4.97;0.67;;;7.80;71.20;7.70;96581.00;;;;5099235;27;20219;-81
2023/01/11 03:09:11;;;;;;;5.23;0.87;;;7.90;71.30;7.70;96578.00;;;;5102531;27;20663;-81
2023/01/11 03:15:08;;;;;;;13.63;1.17;;;7.90;71.70;7.70;96575.00;;;;5109445;27;20651;-80
2023/01/11 03:17:54;;;;;;;4.20;0.53;;;7.90;71.70;7.80;96575.00;;;;5106724;28;20221;-81
2023/01/11 03:20:30;;;;;;;0.43;0.40;;;7.90;72.00;7.80;96572.00;;;;5105919;28;20256;-81
2023/01/11 03:23:13;;;;;;;1.27;0.50;;;7.90;72.00;7.80;96558.00;;;;5113164;28;20205;-81
2023/01/11 03:25:55;;;;;;;0.87;0.33;;;8.00;72.10;7.80;96564.00;;;;5112593;27;20236;-81
2023/01/11 03:28:35;;;;;;;1.90;0.33;;;8.00;72.00;7.90;96560.00;;;;5101008;27;20290;-81
2023/01/11 03:31:09;;;;;;;5.17;0.80;;;8.00;72.10;7.90;96547.00;;;;5113162;27;20222;-81
2023/01/11 03:33:54;;;;;;;5.60;0.60;;;8.00;72.20;7.90;96551.00;;;;5101341;28;20222;-80
2023/01/11 03:36:37;;;;;;;5.17;0.80;;;8.10;72.30;8.00;96550.00;;;;5116745;27;20214;-82
2023/01/11 03:39:18;;;;;;;4.03;0.50;;;8.10;72.30;8.00;96539.00;;;;5111620;28;20282;-80
2023/01/11 03:41:57;;;;;;;0.40;0.40;;;8.10;72.40;8.00;96537.00;;;;5111194;27;20193;-81
2023/01/11 03:44:32;;;;;;;12.83;1.40;;;8.10;72.40;8.00;96540.00;;;;5112595;27;20190;-81
2023/01/11 03:47:09;;;;;;;0.13;0.13;;;8.20;72.40;8.10;96537.00;;;;5098611;28;20281;-81
2023/01/11 03:49:45;;;;;;;16.43;1.13;;;8.20;72.50;8.10;96536.00;;;;5100215;28;20623;-81
2023/01/11 03:52:28;;;;;;;0.40;0.40;;;8.20;72.50;8.10;96531.00;;;;5105475;28;20205;-80
2023/01/11 03:55:16;;;;;;;1.23;0.37;;;8.20;72.70;8.10;96534.00;;;;5105307;28;20254;-81
2023/01/11 03:57:50;;;;;;;6.03;0.90;;;8.30;72.70;8.10;96533.00;;;;5119451;27;20193;-81
2023/01/11 04:00:25;;;;;;;0.60;0.27;;;8.20;72.60;8.10;96519.00;;;;5112361;27;20219;-81
2023/01/11 04:02:53;;;;;;;0.53;0.50;;;8.20;72.50;8.10;96512.00;;;;5106542;27;20206;-81
2023/01/11 04:05:24;;;;;;;11.53;1.07;;;8.30;72.60;8.10;96520.00;;;;5103657;27;20202;-81
2023/01/11 04:07:58;;;;;;;0.30;0.30;;;8.30;72.70;8.10;96518.00;;;;5108031;27;20658;-81
2023/01/11 04:10:25;;;;;;;1.17;0.43;;;8.30;72.70;8.10;96517.00;;;;5116447;27;20249;-81
2023/01/11 04:12:53;;;;;;;0.60;0.30;;;8.30;72.70;8.10;96513.00;;;;5114530;27;20666;-80
2023/01/11 04:15:21;;;;;;;0.33;0.33;;;8.30;72.70;8.10;96508.00;;;;5111482;28;20195;-81
2023/01/11 04:17:53;;;;;;;4.80;0.50;;;8.30;72.80;8.10;96514.00;;;;5099701;27;20562;-81
2023/01/11 04:20:23;;;;;;;0.67;0.40;;;8.30;72.80;8.20;96521.00;;;;5105132;27;20291;-81
2023/01/11 04:23:04;;;;;;;1.77;0.20;;;8.30;73.00;8.20;96511.00;;;;5098785;28;20615;-81
2023/01/11 04:25:45;;;;;;;1.17;0.30;;;8.30;73.00;8.20;96507.00;;;;5103094;27;20210;-81
2023/01/11 04:28:22;;;;;;;2.73;0.50;;;8.30;72.90;8.20;96505.00;;;;5111303;27;20213;-81
2023/01/11 04:30:57;;;;;;;2.20;0.30;;;8.30;72.90;8.20;96507.00;;;;5119318;27;20322;-81
2023/01/11 04:33:38;;;;;;;1.40;0.50;;;8.40;73.00;8.30;96502.00;;;;5099200;27;20202;-81
2023/01/11 04:36:23;;;;;;;0.50;0.40;;;8.40;73.00;8.30;96509.00;;;;5101246;27;20187;-81
2023/01/11 04:38:52;;;;;;;0.30;0.23;;;8.40;73.00;8.30;96506.00;;;;5097457;28;20211;-82
2023/01/11 04:44:10;;;;;;;1.23;0.20;;;8.40;72.90;8.40;96508.00;;;;5103597;27;20566;-80
2023/01/11 04:46:46;;;;;;;0.30;0.30;;;8.50;73.10;8.40;96506.00;;;;5099206;28;20199;-81
2023/01/11 04:49:14;;;;;;;1.10;0.27;;;8.50;72.90;8.40;96502.00;;;;5102145;27;20234;-81
2023/01/11 04:51:41;;;;;;;0.37;0.37;;;8.50;72.90;8.40;96510.00;;;;5102718;27;22096;-82
2023/01/11 04:54:10;;;;;;;0.30;0.30;;;8.50;72.90;8.40;96506.00;;;;5098423;28;20240;-81
2023/01/11 04:56:41;;;;;;;4.00;0.97;;;8.60;73.10;8.50;96502.00;;;;5100346;28;20191;-81
2023/01/11 04:59:08;;;;;;;0.60;0.40;;;8.60;73.10;8.50;96505.00;;;;5097916;27;20215;-82
2023/01/11 05:01:45;;;;;;;3.43;0.70;;;8.60;73.20;8.60;96502.00;;;;5097246;27;20219;-82
2023/01/11 05:04:13;;;;;;;0.50;0.50;;;8.60;73.20;8.60;96498.00;;;;5095925;28;20206;-81
2023/01/11 05:06:40;;;;;;;0.60;0.60;;;8.70;73.20;8.70;96500.00;;;;5100467;27;20207;-81
2023/01/11 05:09:13;;;;;;;2.80;0.90;;;8.70;73.10;8.70;96498.00;;;;5100161;27;20214;-82
2023/01/11 05:11:41;;;;;;;2.10;0.60;;;8.70;73.10;8.70;96508.00;;;;5098608;28;20230;-81
2023/01/11 05:14:14;;;;;;;0.30;0.30;;;8.70;73.10;8.80;96498.00;;;;5094525;28;20640;-81
2023/01/11 05:16:42;;;;;;;0.60;0.60;;;8.80;73.20;8.80;96505.00;;;;5102373;28;20268;-81
2023/01/11 05:19:16;;;;;;;0.87;0.40;;;8.80;73.00;8.80;96496.00;;;;5097274;28;20294;-81
2023/01/11 05:21:44;;;;;;;0.57;0.50;;;8.80;73.00;8.80;96495.00;;;;5098835;28;20256;-82
2023/01/11 05:24:38;;;;;;;0.50;0.30;;;8.90;73.00;8.80;96499.00;;;;5097665;28;20227;-81
2023/01/11 05:27:05;;;;;;;10.57;1.10;;;8.90;73.00;8.90;96495.00;;;;5097406;28;20203;-82
2023/01/11 05:29:32;;;;;;;2.60;0.70;;;8.90;72.90;8.90;96496.00;;;;5093490;28;20580;-82
2023/01/11 05:31:59;;;;;;;0.67;0.57;;;8.90;73.00;8.90;96495.00;;;;5102580;28;20225;-81
2023/01/11 05:34:26;;;;;;;2.40;1.50;;;9.00;73.00;8.90;96501.00;;;;5114678;28;20232;-80
2023/01/11 05:36:54;;;;;;;0.70;0.70;;;9.00;72.90;8.90;96501.00;;;;5104808;28;20192;-80
2023/01/11 05:39:22;;;;;;;1.13;0.50;;;9.00;72.90;8.90;96494.00;;;;5112298;28;20780;-80
2023/01/11 05:41:51;;;;;;;1.20;0.50;;;9.00;72.70;8.90;96488.00;;;;5102935;28;20219;-79
2023/01/11 05:47:03;;;;;;;2.10;0.80;;;9.00;72.60;8.90;96479.00;;;;5100649;28;20191;-80
2023/01/11 05:49:33;;;;;;;33.23;3.07;;;9.00;72.60;9.00;96485.00;;;;5098098;28;20249;-79
2023/01/11 05:52:02;;;;;;;6.67;0.87;;;9.00;72.60;9.00;96489.00;;;;5092536;28;20725;-79
2023/01/11 05:54:29;;;;;;;27.17;2.13;;;9.00;72.70;9.00;96497.00;;;;5098608;28;20331;-80
2023/01/11 05:57:01;;;;;;;19.13;2.07;;;9.10;72.80;9.00;96496.00;;;;5113175;28;20226;-80
2023/01/11 05:59:31;;;;;;;0.40;0.30;;;9.10;72.90;9.10;96491.00;;;;5096798;28;20578;-80
2023/01/11 06:01:59;;;;;;;0.40;0.40;;;9.10;72.80;9.10;96489.00;;;;5094594;28;20298;-80
2023/01/11 06:04:26;;;;;;;0.50;0.50;;;9.10;72.90;9.10;96484.00;;;;5096777;28;20636;-81
2023/01/11 06:06:53;;;;;;;0.60;0.47;;;9.10;72.90;9.10;96474.00;;;;5099953;28;20282;-80
2023/01/11 06:09:20;;;;;;;0.77;0.60;;;9.10;72.80;9.10;96471.00;;;;5101481;28;20295;-79
2023/01/11 06:11:53;;;;;;;0.60;0.60;;;9.20;72.90;9.10;96486.00;;;;5099837;28;20658;-80
2023/01/11 06:14:43;;;;;;;3.67;0.60;;;9.20;72.80;9.10;96484.00;;;;5108541;27;20199;-81
2023/01/11 06:17:10;;;;;;;4.20;0.70;;;9.20;72.80;9.20;96485.00;;;;5095632;28;20219;-80
2023/01/11 06:19:38;;;;;;;21.70;1.80;;;9.20;72.70;9.20;96479.00;;;;5099045;28;20706;-80
2023/01/11 06:22:06;;;;;;;28.33;3.80;;;9.30;72.80;9.20;96479.00;;;;5099395;28;20300;-80
2023/01/11 06:24:42;;;;;;;6.80;1.10;;;9.30;72.80;9.20;96474.00;;;;5099821;28;22241;-80
2023/01/11 06:27:10;;;;;;;0.70;0.57;;;9.30;72.80;9.20;96488.00;;;;5096855;28;20202;-79
2023/01/11 06:29:38;;;;;;;26.00;2.57;;;9.30;72.80;9.20;96484.00;;;;5103217;27;20219;-79
2023/01/11 06:32:07;;;;;;;0.77;0.60;;;9.30;72.70;9.30;96489.00;;;;5099933;27;20223;-80
2023/01/11 06:34:34;;;;;;;1.63;0.90;;;9.30;72.70;9.20;96478.00;;;;5102697;27;20583;-80
2023/01/11 06:37:01;;;;;;;0.90;0.90;;;9.30;72.50;9.20;96477.00;;;;5100302;28;20287;-79
2023/01/11 06:39:29;;;;;;;1.37;0.67;;;9.30;72.40;9.20;96477.00;;;;5098171;28;20268;-79
2023/01/11 06:41:56;;;;;;;1.00;0.80;;;9.30;72.30;9.20;96465.00;;;;5098888;27;20280;-79
2023/01/11 06:44:23;;;;;;;1.23;0.80;;;9.30;72.20;9.20;96468.00;;;;5098673;27;20220;-80
2023/01/11 06:46:53;;;;;;;19.67;1.83;;;9.30;72.30;9.20;96463.00;;;;5103070;27;20202;-80
2023/01/11 06:49:20;;;;;;;5.10;1.10;;;9.30;72.40;9.20;96460.00;;;;5101552;27;20671;-80
2023/01/11 06:51:48;;;;;;;0.90;0.80;;;9.30;72.50;9.30;96464.00;;;;5103426;27;20198;-79
2023/01/11 06:54:20;;;;;;;1.63;0.67;;;9.30;72.60;9.30;96468.00;;;;5108938;27;20223;-79
2023/01/11 06:56:47;;;;;;;0.93;0.50;;;9.40;72.80;9.30;96464.00;;;;5105493;28;20197;-77
2023/01/11 06:59:17;;;;;;;0.80;0.50;;;9.40;72.70;9.30;96457.00;;;;5103240;28;20251;-79
2023/01/11 07:01:45;;;;;;;0.60;0.60;;;9.40;72.50;9.30;96454.00;;;;5100069;28;22217;-79
2023/01/11 07:04:13;;;;;;;1.47;0.50;;;9.40;72.30;9.30;96455.00;;;;5116905;27;20203;-79
2023/01/11 07:06:40;;;;;;;0.70;0.50;;;9.40;72.30;9.30;96465.00;;;;5108939;27;20195;-78
2023/01/11 07:09:08;;;;;;;15.27;1.53;;;9.40;72.30;9.30;96465.00;;;;5118813;27;20226;-79
2023/01/11 07:11:37;;;;;;;9.87;1.20;;;9.40;72.30;9.30;96465.00;;;;5097416;27;20191;-79
2023/01/11 07:14:05;;;;;;;10.30;1.67;;;9.40;72.40;9.40;96467.00;;;;5104197;28;21264;-79
2023/01/11 07:16:32;;;;;;;0.43;0.43;;;9.40;72.40;9.40;96474.00;;;;5114218;27;20208;-81
2023/01/11 07:18:59;;;;;;;1.27;0.60;;;9.40;72.40;9.40;96483.00;;;;5100775;27;20230;-83
2023/01/11 07:21:28;;;;;;;2.50;0.73;;;9.40;72.30;9.50;96479.00;;;;5118187;27;20257;-83
2023/01/11 07:24:01;;;;;;;0.57;0.40;;;9.40;72.40;9.50;96487.00;;;;5121054;27;20198;-82
2023/01/11 07:26:41;;;;;;;1.13;0.80;;;9.50;72.50;9.50;96486.00;;;;5115537;27;20254;-81
2023/01/11 07:29:12;;;;;;;4.40;0.97;;;9.50;72.50;9.60;96478.00;;;;5106346;28;20277;-82
2023/01/11 07:31:43;;;;;;;0.70;0.70;;;9.50;72.40;9.60;96474.00;;;;5115136;27;20260;-82
2023/01/11 07:34:17;;;;;;;0.83;0.70;;;9.50;72.40;9.70;96463.00;;;;5104206;28;20244;-83
2023/01/11 07:36:49;;;;;;;1.57;0.80;;;9.50;72.40;9.70;96469.00;;;;5121974;27;21063;-81
2023/01/11 07:39:21;;;;;;;11.63;1.03;;;9.60;72.40;9.70;96467.00;;;;5126865;27;20238;-82
2023/01/11 07:44:36;;;;;;;1.10;0.77;;;9.60;72.40;9.80;96465.00;;;;5113780;27;20741;-81
2023/01/11 07:47:06;;;;;;;4.60;0.80;;;9.70;72.50;9.80;96450.00;;;;5105052;27;20241;-81
2023/01/11 07:49:33;;;;;;;11.97;1.10;;;9.70;72.50;9.90;96460.00;;;;5103337;28;20215;-84
2023/01/11 07:52:09;;;;;;;1.03;0.60;;;9.70;72.40;9.90;96454.00;;;;5105844;27;20199;-81
2023/01/11 07:54:42;;;;;;;0.87;0.70;;;9.80;72.50;9.90;96450.00;;;;5110946;27;20190;-82
2023/01/11 07:57:09;;;;;;;0.60;0.60;;;9.80;72.30;9.90;96449.00;;;;5110608;27;20225;-81
2023/01/11 07:59:36;;;;;;;1.57;0.57;;;9.80;72.30;10.00;96444.00;;;;5109789;27;20215;-81
2023/01/11 08:02:03;;;;;;;0.97;0.57;;;9.90;72.30;10.00;96452.00;;;;5104727;27;20260;-82
2023/01/11 08:04:30;;;;;;;37.07;3.23;;;9.90;72.30;10.10;96448.00;;;;5101320;27;20195;-82
2023/01/11 08:06:57;;;;;;;84.03;6.03;;;10.00;72.40;10.10;96448.00;;;;5106866;27;20225;-81
2023/01/11 08:09:26;;;;;;;22.63;2.63;;;10.00;72.40;10.20;96448.00;;;;5119096;27;20214;-81
2023/01/11 08:14:41;;;;;;;4.37;0.77;;;10.10;72.50;10.30;96443.00;;;;5095350;27;20286;-82
2023/01/11 08:17:11;;;;;;;5.07;1.00;;;10.10;72.40;10.40;96440.00;;;;5115753;27;20198;-83
2023/01/11 08:19:40;;;;;;;1.00;0.70;;;10.20;72.40;10.40;96443.00;;;;5123244;27;20337;-83
2023/01/11 08:22:07;;;;;;;0.83;0.60;;;10.20;72.20;10.50;96429.00;;;;5117571;27;20283;-82
2023/01/11 08:24:36;;;;;;;0.60;0.60;;;10.30;72.10;10.50;96429.00;;;;5110516;28;20286;-83
2023/01/11 08:27:04;;;;;;;0.63;0.50;;;10.40;72.00;10.60;96433.00;;;;5094255;28;20686;-83
2023/01/11 08:29:31;;;;;;;0.57;0.57;;;10.40;71.90;10.60;96431.00;;;;5116140;27;20707;-83
2023/01/11 08:31:59;;;;;;;0.80;0.50;;;10.40;71.80;10.70;96426.00;;;;5102811;28;20264;-82
2023/01/11 08:34:27;;;;;;;1.10;1.00;;;10.40;71.60;10.70;96424.00;;;;5097336;28;20200;-82
2023/01/11 08:36:56;;;;;;;0.97;0.80;;;10.50;71.60;10.70;96419.00;;;;5101265;28;20281;-83
2023/01/11 08:39:27;;;;;;;0.77;0.77;;;10.50;71.40;10.80;96418.00;;;;5105131;28;20361;-81
2023/01/11 08:41:55;;;;;;;17.27;1.63;;;10.60;71.30;10.80;96432.00;;;;5112918;28;20224;-83
2023/01/11 08:44:22;;;;;;;0.80;0.70;;;10.60;71.30;10.90;96431.00;;;;5101268;28;20242;-83
2023/01/11 08:47:00;;;;;;;5.87;1.10;;;10.60;71.50;10.90;96437.00;;;;5100350;28;20219;-82
2023/01/11 08:49:31;;;;;;;2.40;0.90;;;10.70;71.50;11.00;96437.00;;;;5109832;28;20674;-82
2023/01/11 08:52:03;;;;;;;1.93;0.70;;;10.70;71.50;11.00;96440.00;;;;5104623;28;20240;-82
2023/01/11 08:54:33;;;;;;;0.57;0.53;;;10.80;71.70;11.10;96442.00;;;;5104499;27;20202;-82
2023/01/11 08:57:06;;;;;;;24.90;2.50;;;10.80;71.70;11.20;96449.00;;;;5100803;28;20203;-82
2023/01/11 08:59:33;;;;;;;2.07;0.70;;;10.90;71.80;11.20;96449.00;;;;5128925;27;20214;-84
2023/01/11 09:02:10;;;;;;;1.43;0.87;;;11.00;71.80;11.30;96446.00;;;;5117158;27;20749;-82
2023/01/11 09:04:39;;;;;;;27.47;2.30;;;11.00;71.60;11.30;96448.00;;;;5121556;27;20203;-82
2023/01/11 09:07:14;;;;;;;34.13;3.00;;;11.10;71.60;11.40;96454.00;;;;5108155;27;20209;-82
2023/01/11 09:09:43;;;;;;;22.90;2.47;;;11.10;71.50;11.40;96451.00;;;;5097739;28;20226;-82
2023/01/11 09:12:26;;;;;;;1.10;0.80;;;11.20;71.50;11.50;96448.00;;;;5109585;28;20213;-82
2023/01/11 09:14:59;;;;;;;6.00;1.10;;;11.20;71.40;11.50;96448.00;;;;5104225;28;20202;-82
2023/01/11 09:17:42;;;;;;;1.23;0.60;;;11.30;71.40;11.60;96451.00;;;;5106728;27;20198;-83
2023/01/11 09:20:18;;;;;;;30.70;3.07;;;11.30;71.30;11.70;96441.00;;;;5099164;28;20229;-84
2023/01/11 09:22:48;;;;;;;14.97;1.47;;;11.40;71.30;11.70;96447.00;;;;5108737;28;20288;-82
2023/01/11 09:25:20;;;;;;;1.50;0.70;;;11.50;71.30;11.70;96447.00;;;;5101928;28;20195;-83
2023/01/11 09:27:51;;;;;;;1.10;0.70;;;11.50;71.00;11.80;96447.00;;;;5103389;28;20246;-82
2023/01/11 09:30:22;;;;;;;2.57;1.23;;;11.50;70.70;11.80;96442.00;;;;5099236;28;20234;-82
2023/01/11 09:32:57;;;;;;;1.00;0.90;;;11.60;70.50;11.90;96439.00;;;;5110926;28;20202;-80
2023/01/11 09:35:31;;;;;;;0.70;0.70;;;11.60;70.40;11.90;96442.00;;;;5113260;28;20199;-82
2023/01/11 09:41:09;;;;;;;0.90;0.80;;;11.70;69.80;12.00;96445.00;;;;5099827;28;20580;-81
2023/01/11 09:43:49;;;;;;;0.93;0.73;;;11.80;69.40;12.00;96429.00;;;;5116742;28;20217;-81
2023/01/11 09:46:41;;;;;;;33.57;2.97;;;11.80;69.40;12.00;96428.00;;;;5103561;28;20602;-82
2023/01/11 09:49:19;;;;;;;3.23;1.20;;;11.80;69.50;12.10;96430.00;;;;5101770;28;20223;-82
2023/01/11 09:51:48;;;;;;;44.53;4.40;;;11.90;69.70;12.20;96426.00;;;;5125411;28;20202;-82
2023/01/11 09:54:29;;;;;;;0.70;0.70;;;11.90;69.80;12.20;96424.00;;;;5123343;28;20666;-82
2023/01/11 09:57:15;;;;;;;1.13;0.90;;;11.90;69.70;12.30;96432.00;;;;5108244;28;20214;-81
2023/01/11 09:59:57;;;;;;;0.77;0.70;;;12.00;69.90;12.30;96425.00;;;;5110284;27;20210;-82
2023/01/11 10:02:41;;;;;;;1.67;0.80;;;12.00;69.00;12.30;96431.00;;;;5125144;27;20218;-82
2023/01/11 10:06:03;;;;;;;0.87;0.87;;;12.00;68.90;12.40;96418.00;;;;5114999;27;20199;-81
2023/01/11 10:08:50;;;;;;;0.90;0.80;;;12.10;68.90;12.40;96426.00;;;;5098079;28;20253;-82
2023/01/11 10:11:34;;;;;;;0.90;0.80;;;12.20;69.20;12.50;96419.00;;;;5108696;27;20223;-84
2023/01/11 10:14:21;;;;;;;1.43;0.83;;;12.20;69.00;12.60;96413.00;;;;5108033;27;20247;-83
2023/01/11 10:17:01;;;;;;;0.60;0.60;;;12.30;69.40;12.70;96411.00;;;;5123650;27;20715;-82
2023/01/11 10:19:38;;;;;;;0.93;0.70;;;12.40;69.30;12.80;96411.00;;;;5105506;28;20220;-82
2023/01/11 10:22:18;;;;;;;1.27;0.67;;;12.50;69.30;12.90;96406.00;;;;5101127;27;20239;-82
2023/01/11 10:25:06;;;;;;;0.60;0.60;;;12.60;69.20;13.00;96406.00;;;;5099859;28;20234;-82
2023/01/11 10:27:52;;;;;;;10.37;1.83;;;12.70;69.10;13.10;96398.00;;;;5098758;28;20203;-82
2023/01/11 10:30:50;;;;;;;0.97;0.80;;;12.80;69.10;13.20;96393.00;;;;5119448;27;20616;-82
2023/01/11 10:33:49;;;;;;;17.10;2.40;;;12.90;68.70;13.30;96398.00;;;;5122016;27;20639;-81
2023/01/11 10:36:54;;;;;;;1.57;0.93;;;13.00;69.10;13.40;96395.00;;;;5115419;28;20233;-82
2023/01/11 10:39:50;;;;;;;0.83;0.70;;;13.10;68.90;13.50;96386.00;;;;5095514;28;20210;-82
2023/01/11 10:42:21;;;;;;;1.20;0.70;;;13.30;68.80;13.60;96392.00;;;;5095545;28;20561;-82
2023/01/11 10:45:03;;;;;;;0.90;0.80;;;13.40;68.80;13.70;96391.00;;;;5123356;27;20189;-83
2023/01/11 10:47:38;;;;;;;1.27;1.13;;;13.50;68.00;13.70;96390.00;;;;5110576;27;20235;-82
2023/01/11 10:50:19;;;;;;;11.70;1.37;;;13.50;67.90;13.80;96388.00;;;;5107214;28;20214;-82
2023/01/11 10:52:55;;;;;;;10.93;1.00;;;13.60;67.90;13.80;96389.00;;;;5115939;28;20224;-81
2023/01/11 10:55:45;;;;;;;33.90;3.23;;;13.70;68.00;13.90;96384.00;;;;5106931;28;20203;-82
2023/01/11 10:58:31;;;;;;;1.00;0.73;;;13.70;68.10;13.90;96377.00;;;;5096075;28;20218;-83
2023/01/11 11:01:15;;;;;;;0.70;0.70;;;13.80;67.70;13.90;96374.00;;;;5103995;28;20218;-82
2023/01/11 11:04:14;;;;;;;1.37;1.00;;;13.80;67.20;13.90;96373.00;;;;5094291;28;20207;-82
2023/01/11 11:06:57;;;;;;;8.93;1.00;;;13.80;66.80;13.90;96373.00;;;;5095037;28;20199;-81
2023/01/11 11:09:37;;;;;;;3.77;1.23;;;13.90;67.00;14.00;96369.00;;;;5096785;28;20280;-82
2023/01/11 11:12:13;;;;;;;5.70;0.80;;;13.90;67.10;14.00;96365.00;;;;5095927;28;20241;-82
2023/01/11 11:14:53;;;;;;;2.30;0.90;;;13.90;67.30;14.10;96358.00;;;;5103138;27;20241;-81
2023/01/11 11:17:25;;;;;;;4.33;2.30;;;13.90;67.40;14.10;96344.00;;;;5114204;27;20207;-80
2023/01/11 11:20:02;;;;;;;5.33;2.33;;;13.90;67.50;14.20;96344.00;;;;5097004;28;20826;-82
2023/01/11 11:22:34;;;;;;;1.80;1.30;;;14.00;67.30;14.20;96351.00;;;;5099284;27;20203;-82
2023/01/11 11:25:08;;;;;;;5.70;1.60;;;14.00;67.30;14.20;96351.00;;;;5124893;27;20193;-82
2023/01/11 11:27:42;;;;;;;0.97;0.90;;;14.00;67.30;14.20;96339.00;;;;5124225;27;20702;-82
2023/01/11 11:30:14;;;;;;;2.20;1.03;;;14.00;67.00;14.30;96339.00;;;;5136001;27;20218;-82
2023/01/11 11:32:52;;;;;;;0.87;0.70;;;14.00;66.70;14.30;96343.00;;;;5097443;28;20195;-82
2023/01/11 11:35:32;;;;;;;0.80;0.80;;;14.10;66.80;14.40;96336.00;;;;5106481;28;20664;-82
2023/01/11 11:38:03;;;;;;;1.10;0.80;;;14.10;66.50;14.50;96329.00;;;;5111356;27;20198;-82
2023/01/11 11:40:37;;;;;;;1.40;0.80;;;14.20;66.70;14.60;96325.00;;;;5114487;27;20921;-82
2023/01/11 11:43:21;;;;;;;7.27;6.07;;;14.20;66.70;14.70;96327.00;;;;5118053;27;20249;-81
2023/01/11 11:45:55;;;;;;;3.43;3.13;;;14.30;66.70;14.80;96325.00;;;;5109799;27;20189;-82
2023/01/11 11:48:26;;;;;;;6.27;2.50;;;14.40;66.90;14.90;96322.00;;;;5111597;27;20558;-81
2023/01/11 11:50:57;;;;;;;2.13;2.03;;;14.50;66.90;14.90;96316.00;;;;5106857;27;20238;-80
2023/01/11 11:53:41;;;;;;;1.60;1.23;;;14.50;66.60;15.00;96309.00;;;;5107671;28;20594;-81
2023/01/11 11:56:29;;;;;;;0.70;0.70;;;14.60;66.10;15.00;96302.00;;;;5094301;28;20203;-82
2023/01/11 11:58:59;;;;;;;5.47;1.07;;;14.70;65.80;15.10;96296.00;;;;5099903;27;20243;-82
2023/01/11 12:01:32;;;;;;;3.47;0.90;;;14.70;66.10;15.10;96300.00;;;;5112251;27;20206;-82
2023/01/11 12:04:14;;;;;;;2.10;1.00;;;14.70;66.20;15.10;96294.00;;;;5096004;28;20195;-81
2023/01/11 12:06:42;;;;;;;7.47;1.23;;;14.80;66.20;15.20;96292.00;;;;5095373;28;20289;-82
2023/01/11 12:09:24;;;;;;;0.73;0.70;;;14.80;66.40;15.20;96293.00;;;;5096358;27;20199;-82